sensor_id;sensor_type;location;lat;lon;timestamp;P1;durP1;ratioP1;P2;durP2;ratioP2
57093;SDS011;42970;50.996;3.706;2023-07-31T00:00:30;15.85;;;5.00;;
57093;SDS011;42970;50.996;3.706;2023-07-31T00:02:55;10.90;;;3.53;;
57093;SDS011;42970;50.996;3.706;2023-07-31T00:05:21;22.20;;;4.55;;
57093;SDS011;42970;50.996;3.706;2023-07-31T00:07:46;16.98;;;4.13;;
57093;SDS011;42970;50.996;3.706;2023-07-31T00:10:12;6.97;;;3.42;;
57093;SDS011;42970;50.996;3.706;2023-07-31T00:12:38;14.27;;;4.85;;
57093;SDS011;42970;50.996;3.706;2023-07-31T00:15:07;16.17;;;3.83;;
57093;SDS011;42970;50.996;3.706;2023-07-31T00:17:33;15.63;;;4.03;;
57093;SDS011;42970;50.996;3.706;2023-07-31T00:19:59;9.43;;;2.67;;
57093;SDS011;42970;50.996;3.706;2023-07-31T00:22:24;12.52;;;3.67;;
57093;SDS011;42970;50.996;3.706;2023-07-31T00:24:49;21.85;;;4.60;;
57093;SDS011;42970;50.996;3.706;2023-07-31T00:27:15;9.40;;;4.20;;
57093;SDS011;42970;50.996;3.706;2023-07-31T00:29:40;15.95;;;3.17;;
57093;SDS011;42970;50.996;3.706;2023-07-31T00:32:06;10.07;;;4.00;;
57093;SDS011;42970;50.996;3.706;2023-07-31T00:34:32;14.98;;;3.63;;
57093;SDS011;42970;50.996;3.706;2023-07-31T00:36:57;13.98;;;4.38;;
57093;SDS011;42970;50.996;3.706;2023-07-31T00:39:23;17.00;;;4.00;;
57093;SDS011;42970;50.996;3.706;2023-07-31T00:41:48;9.68;;;3.75;;
57093;SDS011;42970;50.996;3.706;2023-07-31T00:44:13;19.33;;;4.57;;
57093;SDS011;42970;50.996;3.706;2023-07-31T00:46:39;14.60;;;4.18;;
57093;SDS011;42970;50.996;3.706;2023-07-31T00:49:04;13.45;;;4.18;;
57093;SDS011;42970;50.996;3.706;2023-07-31T00:51:30;10.82;;;3.45;;
57093;SDS011;42970;50.996;3.706;2023-07-31T00:53:56;18.92;;;3.95;;
57093;SDS011;42970;50.996;3.706;2023-07-31T00:56:22;11.98;;;4.20;;
57093;SDS011;42970;50.996;3.706;2023-07-31T00:58:48;17.15;;;4.00;;
57093;SDS011;42970;50.996;3.706;2023-07-31T01:01:14;15.02;;;3.70;;
57093;SDS011;42970;50.996;3.706;2023-07-31T01:03:39;13.45;;;3.70;;
57093;SDS011;42970;50.996;3.706;2023-07-31T01:06:12;15.82;;;3.97;;
57093;SDS011;42970;50.996;3.706;2023-07-31T01:08:44;10.73;;;2.83;;
57093;SDS011;42970;50.996;3.706;2023-07-31T01:11:21;16.17;;;4.18;;
57093;SDS011;42970;50.996;3.706;2023-07-31T01:13:49;12.05;;;2.95;;
57093;SDS011;42970;50.996;3.706;2023-07-31T01:16:14;16.98;;;4.50;;
57093;SDS011;42970;50.996;3.706;2023-07-31T01:18:40;12.07;;;3.63;;
57093;SDS011;42970;50.996;3.706;2023-07-31T01:21:19;11.77;;;3.95;;
57093;SDS011;42970;50.996;3.706;2023-07-31T01:26:38;8.32;;;2.90;;
57093;SDS011;42970;50.996;3.706;2023-07-31T01:29:10;19.73;;;3.83;;
57093;SDS011;42970;50.996;3.706;2023-07-31T01:31:42;14.25;;;3.67;;
57093;SDS011;42970;50.996;3.706;2023-07-31T01:34:13;12.85;;;3.53;;
57093;SDS011;42970;50.996;3.706;2023-07-31T01:36:40;10.70;;;3.63;;
57093;SDS011;42970;50.996;3.706;2023-07-31T01:39:05;19.35;;;3.42;;
57093;SDS011;42970;50.996;3.706;2023-07-31T01:41:31;21.23;;;4.18;;
57093;SDS011;42970;50.996;3.706;2023-07-31T01:43:56;14.63;;;3.72;;
57093;SDS011;42970;50.996;3.706;2023-07-31T01:46:22;13.85;;;3.75;;
57093;SDS011;42970;50.996;3.706;2023-07-31T01:48:47;12.27;;;2.90;;
57093;SDS011;42970;50.996;3.706;2023-07-31T01:51:13;16.27;;;3.53;;
57093;SDS011;42970;50.996;3.706;2023-07-31T01:53:38;14.73;;;4.00;;
57093;SDS011;42970;50.996;3.706;2023-07-31T01:56:04;16.52;;;4.00;;
57093;SDS011;42970;50.996;3.706;2023-07-31T01:58:29;15.90;;;3.95;;
57093;SDS011;42970;50.996;3.706;2023-07-31T02:00:55;12.73;;;3.58;;
57093;SDS011;42970;50.996;3.706;2023-07-31T02:03:20;11.80;;;4.22;;
57093;SDS011;42970;50.996;3.706;2023-07-31T02:05:46;20.23;;;4.45;;
57093;SDS011;42970;50.996;3.706;2023-07-31T02:08:13;18.77;;;3.97;;
57093;SDS011;42970;50.996;3.706;2023-07-31T02:10:38;17.13;;;4.10;;
57093;SDS011;42970;50.996;3.706;2023-07-31T02:13:04;13.68;;;3.55;;
57093;SDS011;42970;50.996;3.706;2023-07-31T02:15:30;13.02;;;4.20;;
57093;SDS011;42970;50.996;3.706;2023-07-31T02:17:56;10.40;;;3.72;;
57093;SDS011;42970;50.996;3.706;2023-07-31T02:20:21;11.00;;;3.65;;
57093;SDS011;42970;50.996;3.706;2023-07-31T02:22:46;18.70;;;3.90;;
57093;SDS011;42970;50.996;3.706;2023-07-31T02:25:12;17.15;;;4.47;;
57093;SDS011;42970;50.996;3.706;2023-07-31T02:27:38;15.63;;;4.53;;
57093;SDS011;42970;50.996;3.706;2023-07-31T02:30:03;14.10;;;3.80;;
57093;SDS011;42970;50.996;3.706;2023-07-31T02:32:29;17.15;;;3.83;;
57093;SDS011;42970;50.996;3.706;2023-07-31T02:34:54;16.98;;;6.05;;
57093;SDS011;42970;50.996;3.706;2023-07-31T02:37:20;14.60;;;4.30;;
57093;SDS011;42970;50.996;3.706;2023-07-31T02:39:45;16.42;;;5.28;;
57093;SDS011;42970;50.996;3.706;2023-07-31T02:42:11;18.90;;;4.70;;
57093;SDS011;42970;50.996;3.706;2023-07-31T02:44:37;14.05;;;3.97;;
57093;SDS011;42970;50.996;3.706;2023-07-31T02:47:03;28.50;;;4.00;;
57093;SDS011;42970;50.996;3.706;2023-07-31T02:49:28;14.82;;;4.57;;
57093;SDS011;42970;50.996;3.706;2023-07-31T02:51:54;12.80;;;4.57;;
57093;SDS011;42970;50.996;3.706;2023-07-31T02:54:19;17.92;;;4.10;;
57093;SDS011;42970;50.996;3.706;2023-07-31T02:56:46;19.30;;;4.88;;
57093;SDS011;42970;50.996;3.706;2023-07-31T02:59:12;12.02;;;3.88;;
57093;SDS011;42970;50.996;3.706;2023-07-31T03:01:37;13.10;;;4.43;;
57093;SDS011;42970;50.996;3.706;2023-07-31T03:04:03;17.83;;;5.00;;
57093;SDS011;42970;50.996;3.706;2023-07-31T03:06:28;13.90;;;4.00;;
57093;SDS011;42970;50.996;3.706;2023-07-31T03:08:54;19.35;;;5.03;;
57093;SDS011;42970;50.996;3.706;2023-07-31T03:11:19;16.77;;;4.65;;
57093;SDS011;42970;50.996;3.706;2023-07-31T03:13:45;21.83;;;5.07;;
57093;SDS011;42970;50.996;3.706;2023-07-31T03:16:10;20.35;;;4.97;;
57093;SDS011;42970;50.996;3.706;2023-07-31T03:18:36;15.95;;;5.72;;
57093;SDS011;42970;50.996;3.706;2023-07-31T04:53:14;15.95;;;5.20;;
57093;SDS011;42970;50.996;3.706;2023-07-31T04:55:39;14.40;;;6.10;;
57093;SDS011;42970;50.996;3.706;2023-07-31T04:58:05;14.10;;;6.68;;
57093;SDS011;42970;50.996;3.706;2023-07-31T05:00:30;12.75;;;5.90;;
57093;SDS011;42970;50.996;3.706;2023-07-31T05:02:56;16.85;;;6.57;;
57093;SDS011;42970;50.996;3.706;2023-07-31T05:05:21;12.88;;;6.10;;
57093;SDS011;42970;50.996;3.706;2023-07-31T05:07:47;20.27;;;6.80;;
57093;SDS011;42970;50.996;3.706;2023-07-31T05:10:12;16.38;;;6.47;;
57093;SDS011;42970;50.996;3.706;2023-07-31T05:12:38;14.63;;;6.35;;
57093;SDS011;42970;50.996;3.706;2023-07-31T05:15:03;12.02;;;6.40;;
57093;SDS011;42970;50.996;3.706;2023-07-31T05:17:29;16.80;;;6.47;;
57093;SDS011;42970;50.996;3.706;2023-07-31T05:19:55;17.20;;;6.63;;
57093;SDS011;42970;50.996;3.706;2023-07-31T05:22:20;15.80;;;6.50;;
57093;SDS011;42970;50.996;3.706;2023-07-31T05:24:46;12.90;;;5.55;;
57093;SDS011;42970;50.996;3.706;2023-07-31T05:27:11;13.90;;;6.28;;
57093;SDS011;42970;50.996;3.706;2023-07-31T05:29:37;20.77;;;6.28;;
57093;SDS011;42970;50.996;3.706;2023-07-31T05:32:03;12.45;;;6.13;;
57093;SDS011;42970;50.996;3.706;2023-07-31T05:34:29;13.98;;;5.65;;
57093;SDS011;42970;50.996;3.706;2023-07-31T05:36:54;19.15;;;5.85;;
57093;SDS011;42970;50.996;3.706;2023-07-31T05:39:19;14.98;;;5.50;;
57093;SDS011;42970;50.996;3.706;2023-07-31T05:41:45;26.05;;;6.45;;
57093;SDS011;42970;50.996;3.706;2023-07-31T05:44:10;18.17;;;5.53;;
57093;SDS011;42970;50.996;3.706;2023-07-31T05:46:36;15.27;;;4.72;;
57093;SDS011;42970;50.996;3.706;2023-07-31T05:49:01;9.25;;;4.60;;
57093;SDS011;42970;50.996;3.706;2023-07-31T05:51:27;15.15;;;5.10;;
57093;SDS011;42970;50.996;3.706;2023-07-31T05:53:53;11.50;;;4.88;;
57093;SDS011;42970;50.996;3.706;2023-07-31T05:56:18;22.10;;;4.85;;
57093;SDS011;42970;50.996;3.706;2023-07-31T05:58:44;13.30;;;4.40;;
57093;SDS011;42970;50.996;3.706;2023-07-31T06:01:09;15.32;;;5.13;;
57093;SDS011;42970;50.996;3.706;2023-07-31T06:03:35;10.02;;;4.90;;
57093;SDS011;42970;50.996;3.706;2023-07-31T06:06:00;8.43;;;4.43;;
57093;SDS011;42970;50.996;3.706;2023-07-31T06:08:25;12.88;;;4.70;;
57093;SDS011;42970;50.996;3.706;2023-07-31T06:10:51;9.07;;;3.65;;
57093;SDS011;42970;50.996;3.706;2023-07-31T06:13:16;11.25;;;4.50;;
57093;SDS011;42970;50.996;3.706;2023-07-31T06:15:42;10.60;;;3.90;;
57093;SDS011;42970;50.996;3.706;2023-07-31T06:18:07;13.63;;;4.63;;
57093;SDS011;42970;50.996;3.706;2023-07-31T06:20:33;9.40;;;4.28;;
57093;SDS011;42970;50.996;3.706;2023-07-31T06:22:59;11.20;;;4.10;;
57093;SDS011;42970;50.996;3.706;2023-07-31T06:25:25;14.77;;;4.15;;
57093;SDS011;42970;50.996;3.706;2023-07-31T06:27:51;10.57;;;3.47;;
57093;SDS011;42970;50.996;3.706;2023-07-31T06:30:16;10.20;;;4.50;;
57093;SDS011;42970;50.996;3.706;2023-07-31T06:32:42;14.13;;;4.15;;
57093;SDS011;42970;50.996;3.706;2023-07-31T06:35:08;11.38;;;3.90;;
57093;SDS011;42970;50.996;3.706;2023-07-31T06:37:33;6.57;;;3.70;;
57093;SDS011;42970;50.996;3.706;2023-07-31T06:39:59;7.43;;;4.13;;
57093;SDS011;42970;50.996;3.706;2023-07-31T06:42:24;10.13;;;4.90;;
57093;SDS011;42970;50.996;3.706;2023-07-31T06:44:50;7.70;;;3.95;;
57093;SDS011;42970;50.996;3.706;2023-07-31T06:47:15;11.68;;;4.35;;
57093;SDS011;42970;50.996;3.706;2023-07-31T06:49:41;10.07;;;3.80;;
57093;SDS011;42970;50.996;3.706;2023-07-31T06:52:06;11.57;;;3.97;;
57093;SDS011;42970;50.996;3.706;2023-07-31T06:54:32;8.52;;;3.83;;
57093;SDS011;42970;50.996;3.706;2023-07-31T06:56:58;10.65;;;4.25;;
57093;SDS011;42970;50.996;3.706;2023-07-31T06:59:23;10.68;;;4.15;;
57093;SDS011;42970;50.996;3.706;2023-07-31T07:01:49;9.65;;;3.78;;
57093;SDS011;42970;50.996;3.706;2023-07-31T07:04:14;8.93;;;3.85;;
57093;SDS011;42970;50.996;3.706;2023-07-31T07:06:40;6.53;;;3.40;;
57093;SDS011;42970;50.996;3.706;2023-07-31T07:09:05;12.15;;;4.57;;
57093;SDS011;42970;50.996;3.706;2023-07-31T07:11:31;7.43;;;3.75;;
57093;SDS011;42970;50.996;3.706;2023-07-31T07:13:56;9.07;;;3.60;;
57093;SDS011;42970;50.996;3.706;2023-07-31T07:16:22;11.05;;;4.82;;
57093;SDS011;42970;50.996;3.706;2023-07-31T07:18:47;10.85;;;3.63;;
57093;SDS011;42970;50.996;3.706;2023-07-31T07:21:12;8.63;;;3.40;;
57093;SDS011;42970;50.996;3.706;2023-07-31T07:23:41;6.15;;;2.90;;
57093;SDS011;42970;50.996;3.706;2023-07-31T07:26:07;4.65;;;2.85;;
57093;SDS011;42970;50.996;3.706;2023-07-31T07:28:33;6.32;;;3.15;;
57093;SDS011;42970;50.996;3.706;2023-07-31T07:30:58;9.10;;;3.30;;
57093;SDS011;42970;50.996;3.706;2023-07-31T07:33:24;10.55;;;3.85;;
57093;SDS011;42970;50.996;3.706;2023-07-31T07:35:49;8.00;;;3.58;;
57093;SDS011;42970;50.996;3.706;2023-07-31T07:38:15;12.80;;;3.45;;
57093;SDS011;42970;50.996;3.706;2023-07-31T07:40:40;6.72;;;3.00;;
57093;SDS011;42970;50.996;3.706;2023-07-31T07:43:06;6.40;;;2.67;;
57093;SDS011;42970;50.996;3.706;2023-07-31T07:45:31;6.15;;;2.72;;
57093;SDS011;42970;50.996;3.706;2023-07-31T07:47:57;9.63;;;3.08;;
57093;SDS011;42970;50.996;3.706;2023-07-31T07:50:24;6.95;;;3.50;;
57093;SDS011;42970;50.996;3.706;2023-07-31T07:52:49;9.93;;;4.28;;
57093;SDS011;42970;50.996;3.706;2023-07-31T07:55:15;6.70;;;2.83;;
57093;SDS011;42970;50.996;3.706;2023-07-31T07:57:40;5.13;;;2.92;;
57093;SDS011;42970;50.996;3.706;2023-07-31T08:00:06;4.72;;;3.10;;
57093;SDS011;42970;50.996;3.706;2023-07-31T08:02:32;7.05;;;3.20;;
57093;SDS011;42970;50.996;3.706;2023-07-31T08:04:57;12.63;;;3.17;;
57093;SDS011;42970;50.996;3.706;2023-07-31T08:07:23;9.40;;;3.15;;
57093;SDS011;42970;50.996;3.706;2023-07-31T08:09:48;6.95;;;3.15;;
57093;SDS011;42970;50.996;3.706;2023-07-31T08:12:14;6.38;;;2.95;;
57093;SDS011;42970;50.996;3.706;2023-07-31T08:14:39;5.13;;;2.80;;
57093;SDS011;42970;50.996;3.706;2023-07-31T08:17:04;5.10;;;2.83;;
57093;SDS011;42970;50.996;3.706;2023-07-31T08:19:30;7.68;;;3.15;;
57093;SDS011;42970;50.996;3.706;2023-07-31T08:21:55;8.88;;;2.67;;
57093;SDS011;42970;50.996;3.706;2023-07-31T08:24:21;5.80;;;3.05;;
57093;SDS011;42970;50.996;3.706;2023-07-31T08:26:46;9.23;;;2.97;;
57093;SDS011;42970;50.996;3.706;2023-07-31T08:29:12;6.32;;;2.85;;
57093;SDS011;42970;50.996;3.706;2023-07-31T08:31:37;3.88;;;2.53;;
57093;SDS011;42970;50.996;3.706;2023-07-31T08:34:03;3.00;;;2.35;;
57093;SDS011;42970;50.996;3.706;2023-07-31T08:36:28;7.93;;;2.75;;
57093;SDS011;42970;50.996;3.706;2023-07-31T08:38:54;4.53;;;2.50;;
57093;SDS011;42970;50.996;3.706;2023-07-31T08:41:19;12.50;;;2.60;;
57093;SDS011;42970;50.996;3.706;2023-07-31T08:43:45;3.22;;;2.00;;
57093;SDS011;42970;50.996;3.706;2023-07-31T08:46:11;3.92;;;2.40;;
57093;SDS011;42970;50.996;3.706;2023-07-31T08:48:39;5.28;;;2.17;;
57093;SDS011;42970;50.996;3.706;2023-07-31T08:51:07;3.20;;;2.17;;
57093;SDS011;42970;50.996;3.706;2023-07-31T08:53:32;8.65;;;2.85;;
57093;SDS011;42970;50.996;3.706;2023-07-31T08:55:58;7.55;;;2.90;;
57093;SDS011;42970;50.996;3.706;2023-07-31T08:58:24;6.03;;;2.50;;
57093;SDS011;42970;50.996;3.706;2023-07-31T09:00:52;4.78;;;2.00;;
57093;SDS011;42970;50.996;3.706;2023-07-31T09:03:21;5.53;;;2.53;;
57093;SDS011;42970;50.996;3.706;2023-07-31T09:05:48;4.90;;;2.85;;
57093;SDS011;42970;50.996;3.706;2023-07-31T09:15:35;7.10;;;2.90;;
57093;SDS011;42970;50.996;3.706;2023-07-31T09:18:02;6.63;;;2.65;;
57093;SDS011;42970;50.996;3.706;2023-07-31T09:20:28;4.45;;;2.90;;
57093;SDS011;42970;50.996;3.706;2023-07-31T09:22:53;5.18;;;3.08;;
57093;SDS011;42970;50.996;3.706;2023-07-31T09:25:23;6.55;;;3.30;;
57093;SDS011;42970;50.996;3.706;2023-07-31T11:14:23;7.00;;;4.03;;
57093;SDS011;42970;50.996;3.706;2023-07-31T11:31:41;13.93;;;4.28;;
57093;SDS011;42970;50.996;3.706;2023-07-31T11:34:07;14.13;;;4.07;;
57093;SDS011;42970;50.996;3.706;2023-07-31T17:43:17;4.60;;;1.70;;
57093;SDS011;42970;50.996;3.706;2023-07-31T19:00:50;3.72;;;2.58;;
57093;SDS011;42970;50.996;3.706;2023-07-31T19:03:16;6.18;;;2.22;;
57093;SDS011;42970;50.996;3.706;2023-07-31T19:05:42;3.08;;;2.15;;
57093;SDS011;42970;50.996;3.706;2023-07-31T19:08:07;3.72;;;2.40;;
57093;SDS011;42970;50.996;3.706;2023-07-31T19:10:36;2.90;;;2.20;;
57093;SDS011;42970;50.996;3.706;2023-07-31T19:49:28;2.75;;;1.98;;
57093;SDS011;42970;50.996;3.706;2023-07-31T19:51:54;3.63;;;1.60;;
57093;SDS011;42970;50.996;3.706;2023-07-31T19:54:19;3.95;;;1.60;;
57093;SDS011;42970;50.996;3.706;2023-07-31T19:56:45;3.75;;;1.60;;
57093;SDS011;42970;50.996;3.706;2023-07-31T19:59:10;3.00;;;1.88;;
57093;SDS011;42970;50.996;3.706;2023-07-31T20:01:36;2.60;;;1.58;;
57093;SDS011;42970;50.996;3.706;2023-07-31T20:04:01;10.30;;;1.98;;
57093;SDS011;42970;50.996;3.706;2023-07-31T20:06:27;4.90;;;1.77;;
57093;SDS011;42970;50.996;3.706;2023-07-31T20:08:52;4.45;;;2.00;;
57093;SDS011;42970;50.996;3.706;2023-07-31T20:11:18;2.55;;;1.60;;
57093;SDS011;42970;50.996;3.706;2023-07-31T20:13:43;3.35;;;1.80;;
57093;SDS011;42970;50.996;3.706;2023-07-31T20:16:09;3.45;;;1.77;;
57093;SDS011;42970;50.996;3.706;2023-07-31T20:18:34;2.30;;;1.80;;
57093;SDS011;42970;50.996;3.706;2023-07-31T20:21:00;1.90;;;1.40;;
57093;SDS011;42970;50.996;3.706;2023-07-31T20:23:25;8.20;;;2.17;;
57093;SDS011;42970;50.996;3.706;2023-07-31T20:25:51;4.65;;;1.77;;
57093;SDS011;42970;50.996;3.706;2023-07-31T22:02:58;3.40;;;1.75;;
57093;SDS011;42970;50.996;3.706;2023-07-31T22:05:23;4.30;;;2.35;;
57093;SDS011;42970;50.996;3.706;2023-07-31T22:07:49;3.55;;;1.73;;
57093;SDS011;42970;50.996;3.706;2023-07-31T22:10:14;11.18;;;3.13;;
57093;SDS011;42970;50.996;3.706;2023-07-31T22:12:39;5.32;;;2.33;;
57093;SDS011;42970;50.996;3.706;2023-07-31T22:15:05;12.25;;;2.60;;
57093;SDS011;42970;50.996;3.706;2023-07-31T22:17:31;4.30;;;2.38;;
57093;SDS011;42970;50.996;3.706;2023-07-31T22:19:57;13.52;;;2.80;;
